Time;durP1;ratioP1;P1;durP2;ratioP2;P2;SDS_P1;SDS_P2;PMS_P1;PMS_P2;Temp;Humidity;BMP_temperature;BMP_pressure;BME280_temperature;BME280_humidity;BME280_pressure;Samples;Min_cycle;Max_cycle;Signal;HPM_P1;HPM_P2
2021/03/27 00:02:22;;;;;;;77.28;42.78;;;;;;;;;;5015233;28;20053;-61
2021/03/27 00:05:10;;;;;;;83.10;42.27;;;;;;;;;;5015250;28;20128;-62
2021/03/27 00:07:53;;;;;;;85.43;45.30;;;;;;;;;;5030010;28;20029;-62
2021/03/27 00:10:21;;;;;;;81.07;42.72;;;;;;;;;;5014976;28;20026;-61
2021/03/27 00:12:50;;;;;;;81.10;42.95;;;;;;;;;;5015258;28;20018;-61
2021/03/27 00:15:22;;;;;;;78.18;42.28;;;;;;;;;;5014900;28;20021;-61
2021/03/27 00:17:56;;;;;;;75.82;40.95;;;;;;;;;;5014100;28;20046;-63
2021/03/27 00:20:21;;;;;;;76.10;40.22;;;;;;;;;;5014755;28;20083;-61
2021/03/27 00:22:50;;;;;;;82.60;42.75;;;;;;;;;;5014766;28;20344;-61
2021/03/27 00:25:27;;;;;;;86.85;45.03;;;;;;;;;;5014544;28;20053;-61
2021/03/27 00:28:31;;;;;;;96.03;48.70;;;;;;;;;;5014370;28;20124;-61
2021/03/27 00:30:59;;;;;;;96.43;49.78;;;;;;;;;;4973361;28;20031;-61
2021/03/27 00:33:29;;;;;;;92.10;48.97;;;;;;;;;;4973353;28;20027;-61
2021/03/27 00:36:01;;;;;;;85.15;44.88;;;;;;;;;;4993438;28;20042;-61
2021/03/27 00:38:29;;;;;;;79.00;43.50;;;;;;;;;;4997236;28;20064;-61
2021/03/27 00:40:55;;;;;;;80.97;44.08;;;;;;;;;;4996990;28;20022;-61
2021/03/27 00:43:27;;;;;;;81.07;43.65;;;;;;;;;;5013973;28;20037;-61
2021/03/27 00:45:55;;;;;;;84.70;44.60;;;;;;;;;;5014282;28;20474;-61
2021/03/27 00:48:59;;;;;;;79.60;43.50;;;;;;;;;;5013900;28;20466;-61
2021/03/27 00:51:31;;;;;;;79.35;42.08;;;;;;;;;;4953587;29;20042;-61
2021/03/27 00:53:56;;;;;;;;;;;;;;;;;;4970456;28;20503;-61
2021/03/27 00:56:26;;;;;;;78.68;40.88;;;;;;;;;;4937569;29;19921;-61
2021/03/27 00:59:04;;;;;;;77.70;40.13;;;;;;;;;;4938009;29;20042;-61
2021/03/27 01:01:38;;;;;;;81.15;40.97;;;;;;;;;;4969912;28;20531;-63
2021/03/27 01:04:23;;;;;;;81.97;42.22;;;;;;;;;;5014503;28;20084;-61
2021/03/27 01:07:09;;;;;;;79.32;40.78;;;;;;;;;;5014713;28;20067;-61
2021/03/27 01:09:56;;;;;;;78.93;39.58;;;;;;;;;;5014652;28;20088;-61
2021/03/27 01:12:41;;;;;;;72.70;38.92;;;;;;;;;;5014770;28;20033;-61
2021/03/27 01:15:10;;;;;;;71.50;39.22;;;;;;;;;;5013912;28;20117;-61
2021/03/27 01:17:40;;;;;;;76.43;39.83;;;;;;;;;;4999010;28;20124;-62
2021/03/27 01:20:12;;;;;;;71.20;39.38;;;;;;;;;;5033851;28;20033;-61
2021/03/27 01:22:38;;;;;;;70.43;39.15;;;;;;;;;;5033395;28;20493;-62
2021/03/27 01:25:06;;;;;;;68.47;38.83;;;;;;;;;;5033619;28;20049;-62
2021/03/27 01:27:39;;;;;;;74.90;39.00;;;;;;;;;;5015539;28;20519;-62
2021/03/27 01:30:05;;;;;;;72.10;37.10;;;;;;;;;;5033246;28;20040;-61
2021/03/27 01:32:30;;;;;;;73.53;39.38;;;;;;;;;;5033115;28;20021;-62
2021/03/27 01:35:14;;;;;;;74.35;38.90;;;;;;;;;;5033120;28;20362;-61
2021/03/27 01:38:09;;;;;;;77.32;39.92;;;;;;;;;;5033515;28;20133;-61
2021/03/27 01:40:39;;;;;;;72.07;37.20;;;;;;;;;;5024154;28;20056;-60
2021/03/27 01:43:05;;;;;;;75.05;38.63;;;;;;;;;;5033349;28;20033;-61
2021/03/27 01:45:52;;;;;;;70.90;38.03;;;;;;;;;;5033167;28;20068;-61
2021/03/27 01:48:38;;;;;;;71.07;38.80;;;;;;;;;;5025709;28;20048;-60
2021/03/27 01:51:12;;;;;;;70.53;38.78;;;;;;;;;;5026084;28;20068;-61
2021/03/27 01:53:37;;;;;;;69.43;38.60;;;;;;;;;;5033518;28;20025;-61
2021/03/27 01:56:24;;;;;;;74.45;39.40;;;;;;;;;;5016620;28;20129;-61
2021/03/27 01:58:50;;;;;;;75.32;39.65;;;;;;;;;;5015592;28;20124;-61
2021/03/27 02:01:25;;;;;;;68.93;36.83;;;;;;;;;;5037590;28;20049;-61
2021/03/27 02:03:54;;;;;;;63.95;36.10;;;;;;;;;;5019407;28;20179;-61
2021/03/27 02:06:29;;;;;;;70.50;36.97;;;;;;;;;;5036837;28;20025;-61
2021/03/27 02:08:57;;;;;;;69.35;37.28;;;;;;;;;;5037088;28;20067;-62
2021/03/27 02:11:26;;;;;;;66.32;37.05;;;;;;;;;;5019361;28;20025;-61
2021/03/27 02:14:03;;;;;;;69.47;37.45;;;;;;;;;;5019169;28;20029;-61
2021/03/27 02:16:38;;;;;;;61.30;33.97;;;;;;;;;;5019241;28;20034;-61
2021/03/27 02:19:09;;;;;;;58.15;32.88;;;;;;;;;;5036162;28;20107;-64
2021/03/27 02:21:35;;;;;;;54.22;31.73;;;;;;;;;;5035750;28;20069;-64
2021/03/27 02:24:19;;;;;;;56.22;32.05;;;;;;;;;;5036540;28;20126;-63
2021/03/27 02:27:01;;;;;;;61.10;33.08;;;;;;;;;;5036386;28;20520;-63
2021/03/27 02:29:47;;;;;;;61.50;32.22;;;;;;;;;;5036630;28;20124;-63
2021/03/27 02:32:20;;;;;;;62.03;33.42;;;;;;;;;;5019302;28;20037;-63
2021/03/27 02:34:50;;;;;;;59.03;33.15;;;;;;;;;;5036502;28;20075;-63
2021/03/27 02:37:36;;;;;;;59.88;34.25;;;;;;;;;;5036523;28;20084;-63
2021/03/27 02:40:10;;;;;;;57.25;31.80;;;;;;;;;;5010723;28;20037;-64
2021/03/27 02:42:54;;;;;;;58.65;32.70;;;;;;;;;;5018419;28;20418;-63
2021/03/27 02:45:23;;;;;;;56.92;32.00;;;;;;;;;;5036234;28;20022;-63
2021/03/27 02:48:03;;;;;;;56.78;31.70;;;;;;;;;;5036163;28;20051;-63
2021/03/27 02:50:35;;;;;;;53.10;31.08;;;;;;;;;;5036117;28;20030;-64
2021/03/27 02:53:19;;;;;;;54.75;30.63;;;;;;;;;;5035949;28;20067;-63
2021/03/27 02:55:57;;;;;;;55.53;30.92;;;;;;;;;;5018255;28;20025;-63
2021/03/27 02:58:34;;;;;;;52.20;29.77;;;;;;;;;;5035861;28;20030;-63
2021/03/27 03:01:19;;;;;;;51.70;29.70;;;;;;;;;;5036127;28;20113;-63
2021/03/27 03:04:06;;;;;;;53.25;29.95;;;;;;;;;;5036033;28;20060;-64
2021/03/27 03:06:45;;;;;;;50.53;30.35;;;;;;;;;;5035562;28;20029;-63
2021/03/27 03:09:20;;;;;;;54.95;31.27;;;;;;;;;;5035641;28;20033;-63
2021/03/27 03:12:02;;;;;;;55.58;32.08;;;;;;;;;;5035461;28;20393;-63
2021/03/27 03:14:37;;;;;;;49.72;29.73;;;;;;;;;;5035533;28;20022;-63
2021/03/27 03:17:12;;;;;;;53.65;31.08;;;;;;;;;;5035516;28;20025;-63
2021/03/27 03:19:56;;;;;;;47.92;26.75;;;;;;;;;;5035479;28;20072;-63
2021/03/27 03:22:26;;;;;;;47.30;28.98;;;;;;;;;;5035565;28;20038;-63
2021/03/27 03:24:56;;;;;;;48.83;27.50;;;;;;;;;;5036135;28;20080;-63
2021/03/27 03:27:22;;;;;;;;;;;;;;;;;;5018170;28;20025;-63
2021/03/27 03:29:57;;;;;;;46.97;28.48;;;;;;;;;;5017732;28;20489;-63
2021/03/27 03:32:39;;;;;;;46.85;27.75;;;;;;;;;;5035595;28;20037;-63
2021/03/27 03:35:13;;;;;;;46.17;27.40;;;;;;;;;;5035665;28;20104;-64
2021/03/27 03:37:52;;;;;;;44.90;27.70;;;;;;;;;;5035534;28;20049;-64
2021/03/27 03:40:41;;;;;;;45.00;26.25;;;;;;;;;;5035581;28;20036;-63
2021/03/27 03:43:09;;;;;;;49.75;29.55;;;;;;;;;;5029672;28;20041;-64
2021/03/27 03:45:44;;;;;;;47.67;29.98;;;;;;;;;;5035263;28;20028;-64
2021/03/27 03:48:28;;;;;;;51.33;30.33;;;;;;;;;;5035259;28;20365;-64
2021/03/27 03:51:00;;;;;;;55.38;30.60;;;;;;;;;;5035029;28;20029;-63
2021/03/27 03:53:35;;;;;;;51.67;31.30;;;;;;;;;;5034841;28;20025;-64
2021/03/27 03:56:09;;;;;;;53.15;31.20;;;;;;;;;;5034905;28;20033;-64
2021/03/27 03:58:35;;;;;;;48.90;28.52;;;;;;;;;;5034961;28;20029;-64
2021/03/27 04:01:10;;;;;;;49.88;29.63;;;;;;;;;;5035107;28;20025;-63
2021/03/27 04:03:45;;;;;;;47.33;28.40;;;;;;;;;;5035174;28;20037;-63
2021/03/27 04:06:17;;;;;;;54.00;29.55;;;;;;;;;;5017360;28;20061;-64
2021/03/27 04:08:56;;;;;;;48.10;28.52;;;;;;;;;;5034406;28;20385;-64
2021/03/27 04:11:34;;;;;;;50.40;29.55;;;;;;;;;;5034760;28;20041;-64
2021/03/27 04:14:00;;;;;;;48.30;29.05;;;;;;;;;;5016911;28;20109;-64
2021/03/27 04:16:28;;;;;;;48.55;27.85;;;;;;;;;;5016919;28;20024;-63
2021/03/27 04:19:00;;;;;;;46.42;27.63;;;;;;;;;;5032285;28;20528;-62
2021/03/27 04:21:33;;;;;;;48.08;28.05;;;;;;;;;;5034340;28;20359;-63
2021/03/27 04:24:08;;;;;;;53.35;28.90;;;;;;;;;;5034308;28;20429;-63
2021/03/27 04:26:41;;;;;;;57.22;31.27;;;;;;;;;;5049468;28;20029;-63
2021/03/27 04:29:09;;;;;;;42.53;26.98;;;;;;;;;;5033379;28;20528;-63
2021/03/27 04:31:42;;;;;;;50.30;28.40;;;;;;;;;;5015225;28;20055;-63
2021/03/27 04:34:11;;;;;;;45.33;27.42;;;;;;;;;;5034319;28;20086;-63
2021/03/27 04:36:44;;;;;;;62.72;33.30;;;;;;;;;;5034208;28;20350;-63
2021/03/27 04:39:25;;;;;;;47.13;25.83;;;;;;;;;;5016357;28;20120;-63
2021/03/27 04:42:00;;;;;;;43.83;26.05;;;;;;;;;;5033821;28;20132;-63
2021/03/27 04:44:34;;;;;;;64.47;44.88;;;;;;;;;;5033585;28;20060;-62
2021/03/27 04:47:09;;;;;;;45.88;25.45;;;;;;;;;;5020332;28;20025;-62
2021/03/27 04:49:41;;;;;;;43.35;23.23;;;;;;;;;;5033684;28;20527;-63
2021/03/27 04:52:09;;;;;;;40.88;23.42;;;;;;;;;;5033623;28;20474;-62
2021/03/27 04:54:47;;;;;;;40.20;23.48;;;;;;;;;;5034308;28;20047;-62
2021/03/27 04:57:13;;;;;;;37.70;23.23;;;;;;;;;;5033929;28;20029;-62
2021/03/27 04:59:52;;;;;;;40.78;23.75;;;;;;;;;;5032491;28;20017;-62
2021/03/27 05:02:22;;;;;;;38.38;23.50;;;;;;;;;;5032949;28;20021;-62
2021/03/27 05:04:59;;;;;;;39.00;23.17;;;;;;;;;;5031641;28;20221;-62
2021/03/27 05:07:44;;;;;;;36.55;23.13;;;;;;;;;;5032382;28;20036;-62
2021/03/27 05:10:13;;;;;;;40.28;23.38;;;;;;;;;;5002519;28;20049;-63
2021/03/27 05:12:48;;;;;;;43.92;25.20;;;;;;;;;;5033471;28;20025;-62
2021/03/27 05:15:36;;;;;;;43.78;24.83;;;;;;;;;;5033354;28;20535;-62
2021/03/27 05:18:14;;;;;;;39.88;23.05;;;;;;;;;;5020277;28;20124;-63
2021/03/27 05:20:40;;;;;;;43.20;24.50;;;;;;;;;;5015257;28;20033;-62
2021/03/27 05:23:25;;;;;;;40.28;24.52;;;;;;;;;;5033199;28;20338;-62
2021/03/27 05:25:50;;;;;;;37.97;22.73;;;;;;;;;;5015538;28;20033;-62
2021/03/27 05:28:35;;;;;;;41.13;24.08;;;;;;;;;;5033468;28;20339;-62
2021/03/27 05:31:09;;;;;;;46.92;28.25;;;;;;;;;;5015527;28;20053;-62
2021/03/27 05:33:42;;;;;;;46.50;27.38;;;;;;;;;;5033785;28;20029;-62
2021/03/27 05:36:10;;;;;;;44.05;26.55;;;;;;;;;;5033352;28;20048;-62
2021/03/27 05:38:54;;;;;;;45.42;27.23;;;;;;;;;;5033200;28;20040;-62
2021/03/27 05:41:39;;;;;;;42.03;26.38;;;;;;;;;;5033429;28;20048;-62
2021/03/27 05:44:14;;;;;;;41.25;26.60;;;;;;;;;;5033265;28;20111;-63
2021/03/27 05:46:45;;;;;;;42.50;26.25;;;;;;;;;;5048369;28;20029;-63
2021/03/27 05:49:19;;;;;;;37.67;23.92;;;;;;;;;;5015374;28;20053;-62
2021/03/27 05:51:47;;;;;;;36.63;23.90;;;;;;;;;;5032956;28;20017;-63
2021/03/27 05:54:19;;;;;;;39.65;23.58;;;;;;;;;;5033071;28;20063;-63
2021/03/27 05:57:03;;;;;;;33.20;22.27;;;;;;;;;;5015306;28;20029;-63
2021/03/27 05:59:41;;;;;;;33.17;21.92;;;;;;;;;;5015670;28;20056;-63
2021/03/27 06:02:20;;;;;;;32.50;20.23;;;;;;;;;;5015391;28;20037;-63
2021/03/27 06:04:58;;;;;;;32.90;20.90;;;;;;;;;;5015444;28;20120;-63
2021/03/27 06:07:40;;;;;;;32.45;20.52;;;;;;;;;;5032973;28;20029;-63
2021/03/27 06:10:34;;;;;;;31.17;19.98;;;;;;;;;;5015489;28;20022;-63
2021/03/27 06:13:03;;;;;;;29.73;19.00;;;;;;;;;;5032683;28;20029;-63
2021/03/27 06:15:46;;;;;;;35.05;21.27;;;;;;;;;;5032827;28;20074;-63
2021/03/27 06:18:32;;;;;;;32.22;19.27;;;;;;;;;;5032217;28;20049;-61
2021/03/27 06:20:58;;;;;;;33.33;19.33;;;;;;;;;;5031362;28;20030;-61
2021/03/27 06:23:42;;;;;;;54.35;27.25;;;;;;;;;;5032726;28;20021;-61
2021/03/27 06:26:25;;;;;;;44.60;29.13;;;;;;;;;;5032506;28;20044;-63
2021/03/27 06:28:57;;;;;;;28.67;20.02;;;;;;;;;;5047791;28;20389;-62
2021/03/27 06:31:36;;;;;;;30.35;21.83;;;;;;;;;;5032743;28;20112;-63
2021/03/27 06:34:10;;;;;;;36.00;24.38;;;;;;;;;;5015150;28;20025;-63
2021/03/27 06:36:36;;;;;;;33.40;23.35;;;;;;;;;;5032624;28;20018;-63
2021/03/27 06:39:25;;;;;;;26.55;18.55;;;;;;;;;;5032756;28;20496;-63
2021/03/27 06:42:03;;;;;;;35.30;20.63;;;;;;;;;;5033233;28;20374;-63
2021/03/27 06:44:42;;;;;;;33.33;21.48;;;;;;;;;;5036465;28;20117;-63
2021/03/27 06:47:27;;;;;;;31.58;19.02;;;;;;;;;;5036553;28;20030;-63
2021/03/27 06:50:11;;;;;;;27.92;18.20;;;;;;;;;;5036537;28;20049;-63
2021/03/27 06:52:46;;;;;;;28.65;18.67;;;;;;;;;;5018262;28;20022;-63
2021/03/27 06:55:26;;;;;;;29.42;18.95;;;;;;;;;;5036062;28;20030;-63
2021/03/27 06:58:39;;;;;;;67.63;40.78;;;;;;;;;;5035970;28;20037;-63
2021/03/27 07:01:22;;;;;;;28.42;17.65;;;;;;;;;;4994047;28;20034;-63
2021/03/27 07:03:47;;;;;;;43.53;21.50;;;;;;;;;;5034958;28;20047;-63
2021/03/27 07:06:22;;;;;;;34.63;19.15;;;;;;;;;;5036046;28;20022;-63
2021/03/27 07:08:54;;;;;;;33.30;19.48;;;;;;;;;;5034003;28;20374;-63
2021/03/27 07:11:39;;;;;;;30.60;20.42;;;;;;;;;;5034766;28;20539;-63
2021/03/27 07:14:16;;;;;;;27.95;17.83;;;;;;;;;;5033098;28;20017;-63
2021/03/27 07:17:01;;;;;;;25.27;16.50;;;;;;;;;;5001012;28;20029;-63
2021/03/27 07:19:40;;;;;;;24.88;15.63;;;;;;;;;;5029899;28;20045;-63
2021/03/27 07:22:07;;;;;;;24.83;14.88;;;;;;;;;;5023514;28;20067;-63
2021/03/27 07:24:45;;;;;;;28.92;17.33;;;;;;;;;;5016854;28;20052;-63
2021/03/27 07:27:11;;;;;;;23.70;15.23;;;;;;;;;;5017602;28;20025;-63
2021/03/27 07:29:55;;;;;;;24.00;14.68;;;;;;;;;;5034898;28;20469;-63
2021/03/27 07:32:36;;;;;;;21.77;13.73;;;;;;;;;;5035429;28;20029;-63
2021/03/27 07:35:06;;;;;;;20.40;13.07;;;;;;;;;;5034963;28;20041;-61
2021/03/27 07:37:42;;;;;;;16.55;11.02;;;;;;;;;;5034888;28;20509;-61
2021/03/27 07:40:17;;;;;;;17.92;10.60;;;;;;;;;;5035800;28;20040;-61
2021/03/27 07:42:51;;;;;;;15.30;9.80;;;;;;;;;;5034912;28;20029;-61
2021/03/27 07:45:26;;;;;;;18.98;11.02;;;;;;;;;;5034734;28;20071;-62
2021/03/27 07:47:58;;;;;;;15.43;8.45;;;;;;;;;;5034990;28;20033;-61
2021/03/27 07:50:28;;;;;;;17.60;9.30;;;;;;;;;;5017364;28;20033;-60
2021/03/27 07:53:05;;;;;;;17.10;8.93;;;;;;;;;;5016860;28;20021;-61
2021/03/27 07:55:40;;;;;;;15.52;9.50;;;;;;;;;;5034636;28;20104;-61
2021/03/27 07:58:24;;;;;;;15.27;8.65;;;;;;;;;;5035018;28;20446;-61
2021/03/27 08:00:54;;;;;;;15.13;8.80;;;;;;;;;;5034863;28;20064;-61
2021/03/27 08:03:23;;;;;;;16.88;9.30;;;;;;;;;;5034735;28;20029;-61
2021/03/27 08:05:54;;;;;;;14.32;7.95;;;;;;;;;;5017195;28;20052;-61
2021/03/27 08:08:26;;;;;;;15.48;8.25;;;;;;;;;;5016863;28;20034;-61
2021/03/27 08:11:10;;;;;;;8.85;6.10;;;;;;;;;;5034867;28;20048;-61
2021/03/27 08:13:55;;;;;;;7.90;5.13;;;;;;;;;;5017154;28;20500;-61
2021/03/27 08:16:20;;;;;;;12.10;7.03;;;;;;;;;;5034780;28;20389;-60
2021/03/27 08:18:52;;;;;;;5.40;3.42;;;;;;;;;;5020560;28;20037;-60
2021/03/27 08:21:36;;;;;;;9.88;6.95;;;;;;;;;;5013171;28;20034;-61
2021/03/27 08:24:01;;;;;;;12.13;7.18;;;;;;;;;;5012493;28;20389;-63
2021/03/27 08:26:27;;;;;;;13.82;8.50;;;;;;;;;;5013064;28;20024;-63
2021/03/27 08:28:52;;;;;;;12.00;7.47;;;;;;;;;;5012849;28;20148;-63
2021/03/27 08:31:30;;;;;;;12.93;7.65;;;;;;;;;;4979239;28;20026;-63
2021/03/27 08:34:14;;;;;;;19.00;8.77;;;;;;;;;;4993998;28;20033;-63
2021/03/27 08:36:50;;;;;;;4.10;2.58;;;;;;;;;;4994427;28;20025;-63
2021/03/27 08:39:16;;;;;;;11.43;7.40;;;;;;;;;;5012920;28;20038;-63
2021/03/27 08:41:53;;;;;;;13.07;7.35;;;;;;;;;;5014071;28;20037;-63
2021/03/27 08:44:41;;;;;;;17.80;9.32;;;;;;;;;;5014418;28;20134;-63
2021/03/27 08:47:22;;;;;;;13.25;7.05;;;;;;;;;;5014358;28;20030;-63
2021/03/27 08:49:57;;;;;;;15.90;6.95;;;;;;;;;;5013284;28;20429;-61
2021/03/27 08:52:42;;;;;;;22.08;10.05;;;;;;;;;;5012859;28;20025;-62
2021/03/27 08:55:20;;;;;;;22.98;9.25;;;;;;;;;;5012027;28;20079;-60
2021/03/27 08:58:04;;;;;;;24.48;10.23;;;;;;;;;;5012474;28;20452;-60
2021/03/27 09:00:36;;;;;;;24.50;7.50;;;;;;;;;;5012305;28;20018;-60
2021/03/27 09:03:17;;;;;;;27.77;11.15;;;;;;;;;;5012423;28;20022;-60
2021/03/27 09:05:48;;;;;;;28.42;10.65;;;;;;;;;;5011020;28;20026;-60
2021/03/27 09:08:16;;;;;;;40.35;12.15;;;;;;;;;;5010625;28;20040;-60
2021/03/27 09:11:01;;;;;;;46.65;13.77;;;;;;;;;;5012952;28;20053;-62
2021/03/27 09:13:31;;;;;;;46.05;16.73;;;;;;;;;;4992639;28;20081;-61
2021/03/27 09:16:15;;;;;;;59.13;14.20;;;;;;;;;;4994753;28;20032;-61
2021/03/27 09:18:44;;;;;;;57.95;20.00;;;;;;;;;;5022571;28;20434;-60
2021/03/27 09:21:15;;;;;;;68.70;20.90;;;;;;;;;;5014935;28;20116;-60
2021/03/27 09:23:48;;;;;;;74.43;19.60;;;;;;;;;;5033650;28;20041;-60
2021/03/27 09:26:29;;;;;;;76.70;20.77;;;;;;;;;;5015715;28;20029;-60
2021/03/27 09:29:14;;;;;;;55.17;15.65;;;;;;;;;;5033702;28;20032;-60
2021/03/27 09:31:58;;;;;;;75.50;23.02;;;;;;;;;;5033617;28;20029;-60
2021/03/27 09:34:36;;;;;;;78.35;23.42;;;;;;;;;;5033211;28;20112;-60
2021/03/27 09:37:31;;;;;;;75.90;20.92;;;;;;;;;;5033117;28;20112;-61
2021/03/27 09:40:02;;;;;;;66.50;19.40;;;;;;;;;;4961584;28;20051;-61
2021/03/27 09:42:46;;;;;;;59.25;16.42;;;;;;;;;;5033131;28;20112;-61
2021/03/27 09:45:16;;;;;;;61.08;19.85;;;;;;;;;;5033059;28;20048;-61
2021/03/27 09:47:47;;;;;;;65.82;20.63;;;;;;;;;;5032968;28;20520;-62
2021/03/27 09:50:12;;;;;;;61.97;19.25;;;;;;;;;;5033108;28;20053;-61
2021/03/27 09:52:38;;;;;;;64.03;16.33;;;;;;;;;;5033474;28;20060;-61
2021/03/27 09:55:04;;;;;;;66.28;21.30;;;;;;;;;;5033255;28;20061;-62
2021/03/27 09:57:38;;;;;;;55.95;20.75;;;;;;;;;;5032852;28;20013;-61
2021/03/27 10:00:24;;;;;;;53.72;20.63;;;;;;;;;;5015167;28;20030;-61
2021/03/27 10:03:13;;;;;;;57.95;18.48;;;;;;;;;;5015543;28;20116;-61
2021/03/27 10:05:38;;;;;;;38.60;14.73;;;;;;;;;;5033104;28;20030;-62
2021/03/27 10:08:24;;;;;;;36.05;11.07;;;;;;;;;;5033079;28;20032;-62
2021/03/27 10:11:07;;;;;;;44.35;17.05;;;;;;;;;;5032826;28;20033;-62
2021/03/27 10:13:35;;;;;;;54.42;16.55;;;;;;;;;;5032500;28;20060;-63
2021/03/27 10:16:02;;;;;;;44.40;13.68;;;;;;;;;;5032597;28;20014;-63
2021/03/27 10:18:27;;;;;;;44.38;14.35;;;;;;;;;;5018100;28;20049;-62
2021/03/27 10:21:16;;;;;;;39.55;13.88;;;;;;;;;;5036768;28;20037;-63
2021/03/27 10:23:53;;;;;;;41.35;14.18;;;;;;;;;;5012865;28;20041;-62
2021/03/27 10:26:24;;;;;;;20.25;7.63;;;;;;;;;;5035049;28;20025;-63
2021/03/27 10:29:10;;;;;;;50.92;13.88;;;;;;;;;;5035054;28;20033;-63
2021/03/27 10:31:44;;;;;;;35.95;11.00;;;;;;;;;;5028333;28;20064;-63
2021/03/27 10:34:28;;;;;;;39.15;14.20;;;;;;;;;;5036157;28;20394;-63
2021/03/27 10:36:57;;;;;;;31.38;11.35;;;;;;;;;;5036168;28;20133;-63
2021/03/27 10:40:01;;;;;;;30.73;12.52;;;;;;;;;;5018643;28;20025;-62
2021/03/27 10:42:45;;;;;;;23.38;10.20;;;;;;;;;;4978688;28;20050;-62
2021/03/27 10:45:13;;;;;;;31.58;10.50;;;;;;;;;;4994872;28;20031;-63
2021/03/27 10:47:41;;;;;;;31.55;9.48;;;;;;;;;;5019850;28;20056;-61
2021/03/27 10:50:16;;;;;;;33.75;10.40;;;;;;;;;;5036630;28;20036;-61
2021/03/27 10:52:54;;;;;;;23.33;9.05;;;;;;;;;;5018889;28;20481;-60
2021/03/27 10:55:29;;;;;;;17.85;7.35;;;;;;;;;;5036373;28;20041;-60
2021/03/27 10:58:06;;;;;;;23.50;9.07;;;;;;;;;;5029267;28;20025;-60
2021/03/27 11:00:52;;;;;;;27.48;9.57;;;;;;;;;;5036234;28;20044;-60
2021/03/27 11:03:30;;;;;;;24.70;8.07;;;;;;;;;;5036205;28;20030;-60
2021/03/27 11:06:13;;;;;;;30.83;9.18;;;;;;;;;;5035992;28;20137;-60
2021/03/27 11:08:51;;;;;;;25.23;9.38;;;;;;;;;;5018183;28;20443;-60
2021/03/27 11:11:36;;;;;;;13.48;5.57;;;;;;;;;;5017991;28;20455;-60
2021/03/27 11:14:10;;;;;;;21.98;6.68;;;;;;;;;;5035736;28;20025;-60
2021/03/27 11:16:41;;;;;;;22.98;8.13;;;;;;;;;;5018073;28;20026;-60
2021/03/27 11:19:27;;;;;;;25.15;9.60;;;;;;;;;;5035249;28;20488;-60
2021/03/27 11:22:11;;;;;;;18.00;6.97;;;;;;;;;;5028541;28;20026;-60
2021/03/27 11:24:37;;;;;;;11.88;4.57;;;;;;;;;;5035236;28;20037;-61
2021/03/27 11:27:14;;;;;;;7.93;4.38;;;;;;;;;;5035786;28;20480;-61
2021/03/27 11:29:51;;;;;;;10.98;5.40;;;;;;;;;;5035026;28;20030;-60
2021/03/27 11:32:25;;;;;;;17.33;8.32;;;;;;;;;;5035486;28;20075;-60
2021/03/27 11:34:51;;;;;;;16.98;7.72;;;;;;;;;;5035402;28;20034;-60
2021/03/27 11:37:27;;;;;;;14.02;5.72;;;;;;;;;;5017585;28;20021;-60
2021/03/27 11:40:11;;;;;;;16.23;7.85;;;;;;;;;;5035495;28;20021;-60
2021/03/27 11:42:38;;;;;;;14.18;7.55;;;;;;;;;;5017591;28;20113;-60
2021/03/27 11:45:13;;;;;;;11.43;5.80;;;;;;;;;;5035033;28;20018;-60
2021/03/27 11:47:51;;;;;;;15.05;7.85;;;;;;;;;;5034830;28;20025;-60
2021/03/27 11:50:35;;;;;;;15.38;7.38;;;;;;;;;;5035064;28;20404;-60
2021/03/27 11:53:01;;;;;;;20.17;7.45;;;;;;;;;;5034902;28;20030;-62
2021/03/27 11:55:31;;;;;;;13.23;6.38;;;;;;;;;;5034892;28;20139;-61
2021/03/27 11:57:58;;;;;;;12.85;6.68;;;;;;;;;;5034742;28;20087;-62
2021/03/27 12:03:12;;;;;;;12.65;6.57;;;;;;;;;;5034776;28;20029;-62
2021/03/27 12:05:43;;;;;;;13.60;6.93;;;;;;;;;;5034982;28;20017;-62
2021/03/27 12:08:08;;;;;;;9.70;4.20;;;;;;;;;;5034828;28;20449;-61
2021/03/27 12:10:36;;;;;;;8.05;4.38;;;;;;;;;;5034943;28;20037;-61
2021/03/27 12:13:02;;;;;;;14.60;7.55;;;;;;;;;;5034556;28;20024;-61
2021/03/27 12:15:32;;;;;;;15.10;6.20;;;;;;;;;;5034824;28;20017;-61
2021/03/27 12:18:02;;;;;;;15.10;6.72;;;;;;;;;;5028460;28;20034;-62
2021/03/27 12:20:40;;;;;;;13.23;6.78;;;;;;;;;;5015445;28;20045;-62
2021/03/27 12:23:24;;;;;;;10.65;7.35;;;;;;;;;;5015144;28;20025;-61
2021/03/27 12:26:10;;;;;;;14.43;6.85;;;;;;;;;;5014772;28;20030;-61
2021/03/27 12:28:38;;;;;;;11.60;6.55;;;;;;;;;;4997301;28;20445;-61
2021/03/27 12:31:29;;;;;;;12.57;5.93;;;;;;;;;;5014566;28;20478;-62
2021/03/27 12:34:01;;;;;;;10.98;6.10;;;;;;;;;;5014519;28;20030;-62
2021/03/27 12:36:29;;;;;;;10.77;4.57;;;;;;;;;;5014469;28;20026;-62
2021/03/27 12:39:15;;;;;;;11.35;5.82;;;;;;;;;;5014686;28;20041;-62
2021/03/27 12:41:56;;;;;;;7.35;5.47;;;;;;;;;;4996768;28;20375;-62
2021/03/27 12:44:28;;;;;;;8.45;4.28;;;;;;;;;;5014353;28;20022;-62
2021/03/27 12:47:12;;;;;;;10.80;6.28;;;;;;;;;;5014410;28;20038;-62
2021/03/27 12:49:38;;;;;;;8.98;5.47;;;;;;;;;;5014390;28;20352;-62
2021/03/27 12:52:17;;;;;;;8.88;5.43;;;;;;;;;;4997153;28;20022;-62
2021/03/27 12:54:42;;;;;;;8.88;5.40;;;;;;;;;;5014145;28;20449;-62
2021/03/27 12:57:09;;;;;;;11.77;5.90;;;;;;;;;;5014067;28;20026;-62
2021/03/27 12:59:48;;;;;;;7.88;5.35;;;;;;;;;;5013958;28;20395;-62
2021/03/27 13:02:29;;;;;;;10.38;5.88;;;;;;;;;;5013929;28;20123;-62
2021/03/27 13:04:55;;;;;;;;;;;;;;;;;;5014583;28;20022;-61
2021/03/27 13:07:24;;;;;;;8.65;4.20;;;;;;;;;;5014219;28;20028;-62
2021/03/27 13:09:53;;;;;;;11.80;5.63;;;;;;;;;;5014228;28;20030;-61
2021/03/27 13:12:21;;;;;;;10.75;6.75;;;;;;;;;;5014157;28;20033;-61
2021/03/27 13:15:05;;;;;;;8.80;6.03;;;;;;;;;;5014237;28;20037;-61
2021/03/27 13:17:51;;;;;;;7.57;5.60;;;;;;;;;;5015390;28;20033;-62
2021/03/27 13:20:25;;;;;;;8.68;6.13;;;;;;;;;;5002694;28;20064;-61
2021/03/27 13:23:07;;;;;;;10.13;6.28;;;;;;;;;;5033745;28;20044;-61
2021/03/27 13:25:35;;;;;;;9.52;6.32;;;;;;;;;;5033664;28;20148;-61
2021/03/27 13:28:16;;;;;;;11.23;6.15;;;;;;;;;;5033553;28;20457;-62
2021/03/27 13:30:48;;;;;;;11.88;7.03;;;;;;;;;;5015594;28;20033;-62
2021/03/27 13:33:27;;;;;;;10.55;6.10;;;;;;;;;;5033483;28;20062;-62
2021/03/27 13:36:05;;;;;;;10.15;6.80;;;;;;;;;;5015796;28;20048;-61
2021/03/27 13:38:39;;;;;;;8.45;5.60;;;;;;;;;;5033653;28;20025;-61
2021/03/27 13:41:34;;;;;;;10.02;6.28;;;;;;;;;;5015938;28;20424;-61
2021/03/27 13:44:04;;;;;;;6.70;4.97;;;;;;;;;;5019323;28;20052;-61
2021/03/27 13:46:33;;;;;;;9.57;6.40;;;;;;;;;;5033067;28;20072;-61
2021/03/27 13:49:08;;;;;;;6.80;4.43;;;;;;;;;;5033346;28;20025;-61
2021/03/27 13:51:40;;;;;;;9.90;5.43;;;;;;;;;;5033683;28;20393;-61
2021/03/27 13:54:15;;;;;;;7.30;4.90;;;;;;;;;;5037467;28;20362;-61
2021/03/27 13:56:41;;;;;;;7.28;5.38;;;;;;;;;;5019601;28;20035;-61
2021/03/27 13:59:06;;;;;;;5.85;4.57;;;;;;;;;;5037003;28;20506;-61
2021/03/27 14:01:32;;;;;;;8.32;4.38;;;;;;;;;;5037039;28;20484;-61
2021/03/27 14:04:06;;;;;;;7.13;4.25;;;;;;;;;;5037145;28;20033;-61
2021/03/27 14:06:35;;;;;;;6.28;4.72;;;;;;;;;;5019291;28;20035;-61
2021/03/27 14:09:01;;;;;;;5.60;4.30;;;;;;;;;;5037286;28;20428;-61
2021/03/27 14:11:29;;;;;;;4.55;4.00;;;;;;;;;;5037015;28;20052;-61
2021/03/27 14:13:58;;;;;;;9.30;5.38;;;;;;;;;;5037125;28;20101;-62
2021/03/27 14:16:36;;;;;;;10.05;6.80;;;;;;;;;;5036785;28;20112;-62
2021/03/27 14:19:05;;;;;;;8.10;6.95;;;;;;;;;;5036373;28;20133;-62
2021/03/27 14:21:59;;;;;;;10.13;6.80;;;;;;;;;;5036698;28;20068;-62
2021/03/27 14:24:28;;;;;;;14.77;8.13;;;;;;;;;;5006224;28;20049;-62
2021/03/27 14:27:13;;;;;;;13.27;7.78;;;;;;;;;;5036922;28;20104;-62
2021/03/27 14:29:47;;;;;;;15.18;9.93;;;;;;;;;;5036398;28;20030;-62
2021/03/27 14:32:16;;;;;;;11.90;8.60;;;;;;;;;;5018950;28;20033;-61
2021/03/27 14:34:46;;;;;;;14.35;8.27;;;;;;;;;;5027490;28;20022;-61
2021/03/27 14:37:11;;;;;;;12.95;7.75;;;;;;;;;;5016609;28;20049;-61
2021/03/27 14:39:40;;;;;;;11.15;7.47;;;;;;;;;;5016686;28;20048;-61
2021/03/27 14:42:11;;;;;;;10.13;6.70;;;;;;;;;;5016609;28;20108;-60
2021/03/27 14:44:56;;;;;;;8.40;6.85;;;;;;;;;;4998916;28;20038;-61
2021/03/27 14:47:24;;;;;;;9.57;7.30;;;;;;;;;;5016238;28;20045;-61
2021/03/27 14:49:59;;;;;;;9.27;6.72;;;;;;;;;;5016598;28;20347;-60
2021/03/27 14:52:54;;;;;;;10.82;7.25;;;;;;;;;;5016367;28;20080;-61
2021/03/27 14:55:19;;;;;;;11.02;7.32;;;;;;;;;;4980360;28;20063;-61
2021/03/27 14:57:45;;;;;;;7.82;5.38;;;;;;;;;;5016690;28;20087;-60
2021/03/27 15:00:22;;;;;;;10.27;6.82;;;;;;;;;;5016216;28;20030;-61
2021/03/27 15:03:14;;;;;;;9.48;6.85;;;;;;;;;;5015189;28;20034;-61
2021/03/27 15:05:43;;;;;;;11.75;7.53;;;;;;;;;;5014168;28;20050;-60
2021/03/27 15:08:15;;;;;;;10.00;7.28;;;;;;;;;;5016214;28;20033;-61
2021/03/27 15:10:59;;;;;;;10.45;7.57;;;;;;;;;;5016178;28;20049;-60
2021/03/27 15:13:28;;;;;;;10.50;6.97;;;;;;;;;;5031344;28;20034;-60
2021/03/27 15:16:02;;;;;;;7.30;5.45;;;;;;;;;;5016008;28;20466;-61